createdAt,value
2022-12-15T00:06:48.360Z,71.67
2022-12-15T00:17:08.750Z,71.55
2022-12-15T00:27:30.757Z,71.35
2022-12-15T00:37:51.158Z,71.78
2022-12-15T00:47:55.267Z,70.57
2022-12-15T00:58:15.984Z,69.95
2022-12-15T01:08:37.873Z,69.92
2022-12-15T01:18:58.286Z,70.03
2022-12-15T01:29:02.777Z,70.00
2022-12-15T01:39:05.819Z,70.16
2022-12-15T01:49:16.913Z,69.81
2022-12-15T01:59:25.012Z,70.19
2022-12-15T02:09:29.878Z,70.29
2022-12-15T02:20:04.074Z,70.30
2022-12-15T02:30:29.830Z,69.28
2022-12-15T02:40:33.489Z,70.63
2022-12-15T02:51:01.779Z,69.81
2022-12-15T03:01:08.931Z,69.30
2022-12-15T03:11:13.236Z,69.34
2022-12-15T03:21:16.306Z,69.39
2022-12-15T03:41:41.743Z,69.06
2022-12-15T03:51:46.203Z,67.61
2022-12-15T04:01:49.839Z,69.16
2022-12-15T04:11:54.030Z,67.23
2022-12-15T04:21:58.112Z,68.55
2022-12-15T04:32:20.579Z,67.69
2022-12-15T04:42:41.602Z,67.31
2022-12-15T04:53:03.140Z,66.84
2022-12-15T05:03:24.305Z,67.28
2022-12-15T05:13:45.919Z,67.07
2022-12-15T05:24:06.387Z,67.23
2022-12-15T05:34:10.606Z,67.93
2022-12-15T05:44:14.045Z,70.08
2022-12-15T05:54:20.330Z,68.08
2022-12-15T06:04:23.493Z,68.17
2022-12-15T06:14:27.895Z,68.20
2022-12-15T06:24:30.797Z,68.71
2022-12-15T06:34:34.890Z,68.58
2022-12-15T06:44:37.932Z,70.50
2022-12-15T06:54:42.341Z,70.27
2022-12-15T07:04:45.557Z,71.21
2022-12-15T07:14:53.336Z,71.86
2022-12-15T07:24:56.613Z,72.72
2022-12-15T07:35:01.002Z,74.62
2022-12-15T07:45:04.339Z,76.29
2022-12-15T07:55:09.617Z,75.48
2022-12-15T08:05:12.436Z,77.03
2022-12-15T08:15:16.986Z,77.14
2022-12-15T08:25:20.192Z,78.34
2022-12-15T08:35:55.331Z,78.26
2022-12-15T08:45:47.847Z,79.20
2022-12-15T08:55:54.906Z,78.36
2022-12-15T09:05:59.131Z,79.79
2022-12-15T09:16:11.015Z,80.44
2022-12-15T09:26:15.992Z,80.10
2022-12-15T09:36:21.725Z,81.00
2022-12-15T09:46:35.659Z,80.71
2022-12-15T09:56:49.635Z,81.30
2022-12-15T10:06:59.809Z,81.23
2022-12-15T10:17:15.088Z,80.67
2022-12-15T10:27:32.777Z,81.00
2022-12-15T10:37:37.808Z,80.46
2022-12-15T10:47:41.126Z,81.30
2022-12-15T10:57:59.299Z,81.60
2022-12-15T11:08:16.638Z,81.62
2022-12-15T11:18:37.203Z,81.53
2022-12-15T11:28:42.854Z,81.23
2022-12-15T11:38:51.604Z,79.65
2022-12-15T11:49:10.751Z,79.37
2022-12-15T11:59:33.308Z,77.62
2022-12-15T12:09:38.746Z,78.60
2022-12-15T12:19:50.786Z,77.31
2022-12-15T12:30:00.453Z,77.08
2022-12-15T12:40:09.179Z,77.56
2022-12-15T12:50:20.860Z,78.53
2022-12-15T13:00:27.814Z,77.52
2022-12-15T13:10:31.112Z,77.17
2022-12-15T13:20:37.786Z,77.79
2022-12-15T13:31:23.728Z,77.76
2022-12-15T13:41:28.254Z,76.85
2022-12-15T13:51:39.175Z,76.96
2022-12-15T14:01:52.011Z,77.10
2022-12-15T14:11:55.634Z,76.58
2022-12-15T14:22:00.284Z,77.04
2022-12-15T14:32:04.173Z,76.85
2022-12-15T14:42:09.320Z,76.86
2022-12-15T14:52:27.000Z,76.86
2022-12-15T15:02:31.904Z,77.39
2022-12-15T15:12:45.337Z,77.43
2022-12-15T15:23:04.699Z,78.26
2022-12-15T15:33:09.947Z,78.24
2022-12-15T15:43:15.136Z,78.46
2022-12-15T15:53:20.927Z,78.49
2022-12-15T16:03:25.659Z,78.09
2022-12-15T16:13:29.325Z,77.13
2022-12-15T16:23:34.455Z,78.08
2022-12-15T16:33:37.503Z,78.38
2022-12-15T16:43:47.712Z,77.68
2022-12-15T16:53:51.306Z,76.58
2022-12-15T17:03:57.157Z,76.69
2022-12-15T17:14:01.172Z,75.88
2022-12-15T17:24:12.097Z,76.10
2022-12-15T17:34:26.694Z,75.02
2022-12-15T17:44:35.684Z,75.75
2022-12-15T17:54:39.706Z,75.20
2022-12-15T18:04:44.820Z,75.31
2022-12-15T18:14:48.019Z,74.69
2022-12-15T18:24:54.086Z,75.31
2022-12-15T18:34:57.539Z,73.93
2022-12-15T18:45:05.799Z,73.05
2022-12-15T18:55:17.735Z,73.86
2022-12-15T19:05:29.041Z,73.66
2022-12-15T19:15:32.528Z,73.07
2022-12-15T19:25:37.464Z,73.05
2022-12-15T19:35:42.955Z,72.57
2022-12-15T19:45:47.483Z,72.48
2022-12-15T19:55:51.831Z,74.66
2022-12-15T20:05:57.797Z,73.34
2022-12-15T20:16:01.070Z,72.95
2022-12-15T20:26:07.448Z,71.59
2022-12-15T20:36:15.286Z,71.87
2022-12-15T20:46:23.603Z,70.91
2022-12-15T20:56:27.767Z,71.65
2022-12-15T21:06:32.579Z,70.96
2022-12-15T21:16:35.759Z,70.06
2022-12-15T21:26:39.987Z,69.17
2022-12-15T21:36:46.763Z,69.87
2022-12-15T21:46:51.654Z,69.82
2022-12-15T21:56:55.247Z,71.09
2022-12-15T22:07:00.099Z,70.65
2022-12-15T22:17:14.060Z,69.79
2022-12-15T22:27:21.438Z,69.67
2022-12-15T22:37:24.823Z,68.96
2022-12-15T22:47:29.656Z,68.91
2022-12-15T22:57:32.902Z,68.71
2022-12-15T23:07:40.371Z,67.93
2022-12-15T23:17:44.001Z,68.83
2022-12-15T23:27:48.354Z,69.12
2022-12-15T23:37:51.493Z,69.33
2022-12-15T23:48:15.747Z,68.51
2022-12-15T23:58:18.768Z,68.45
